Terminal Aerodrome Forecast
Issued by NWS

Home | Current Version | Previous Version | Text Only | Print | Product List | Glossary On
Versions: 1 2 3 4 5 6 7 8 9 10 11 12 13 14 15
577
FTUS46 KPDT 200758 AAA
TAFALW
TAF AMD
KALW 200758Z 2008/2106 20011KT P6SM -RA SCT008 OVC040
     FM201300 22012G20KT P6SM VCSH BKN050
     FM201600 23019G28KT P6SM SCT050 BKN070
     FM210100 22014G21KT P6SM BKN050 OVC070=

USA.gov is the U.S. government's official web portal to all federal, state and local government web resources and services.